Terminal Aerodrome Forecast
Issued by NWS

Home | Current Version | Previous Version | Text Only | Print | Product List | Glossary On
Versions: 1 2 3 4 5 6 7 8 9 10 11 12 13 14 15
000
FTUS43 KDMX 281728 AAA
TAFFOD
TAF AMD
KFOD 281728Z 2817/2918 23011KT P6SM VCTS BKN040CB
     FM282100 22012KT 5SM -TSRA BKN030CB BKN050
     FM282300 23012KT P6SM VCTS BKN045CB
     FM290100 25007KT P6SM VCSH OVC035
     FM290500 26006KT P6SM BKN025 BKN070
     FM291000 27005KT P6SM SCT070=

USA.gov is the U.S. government's official web portal to all federal, state and local government web resources and services.